Baltimore, Maryland
Traffic Map
Current Weather Conditions
Baltimore, Maryland
Broken Clouds
Broken Clouds
23°
Feels Like: 23°
Wind Chill: 23° Ceiling: 25000
Heat Index: 23° Visibility: 10mi
Dew Point: 18° Wind: 14mph
Humidity: 71% Direction: 90° (E)
Pressure: 30.01in Gusts: 0mph
Raw Report DataKBWI 302254Z 09012KT 10SM SCT030 BKN250 23/18 A3001 RMK AO2 SLP161 T02330178
Traffic Incident Summary
Active as of:
Severity:
Category:
InformationThere was an issue retrieving the traffic information for this location. Please try a different location or try again shortly.
Advertisements
Track Severe Weather on mobile